Home   Weather   Utah Bill Canyon   Past weeks
Flag for USA

Past Weather in Utah Bill Canyon, New Mexico, USA — Yesterday and Last 2 Weeks

Currently: 41 °F. Clear. (Weather station: Las Cruces International, USA). See more current weather

Past Weather in Utah Bill Canyon — Graph

°F

Utah Bill Canyon Temperature Yesterday

Maximum temperature yesterday: 53 °F (at 2:35 pm)
Minimum temperature yesterday: 27 °F (at 5:55 am)
Average temperature yesterday: 39 °F

High & Low Weather Summary for the Past Weeks

 TemperatureHumidityPressure
High70 °F (Jan 14, 3:35 pm)100% (Jan 17, 9:55 am)30.48 "Hg (Jan 17, 9:55 am)
Low25 °F (Jan 21, 6:15 am)14% (Jan 14, 3:35 pm)29.72 "Hg (Jan 23, 12:35 pm)
Average44 °F49%30.07 "Hg
* Reported Jan 11 6:35 pm — Jan 26 6:35 pm, Utah Bill Canyon. Weather by CustomWeather, © 2023

Note: Actual official high and low records may vary slightly from our data, if they occured in-between our weather recording intervals... More about our weather records

Utah Bill Canyon Weather History for the Previous 24 Hours

Scroll right to see more
 ConditionsComfort  
Time TempWeatherWind HumidityBarometerVisibility
6:35 pm
Thu, Jan 26
41 °FClear.3 mph34%30.29 "Hg10 mi
6:15 pm41 °FClear.3 mph33%30.29 "Hg10 mi
5:55 pm42 °FClear.No wind33%30.29 "Hg10 mi
4:35 pm48 °FSunny.3 mph28%30.27 "Hg10 mi
4:15 pm49 °FSunny.5 mph29%30.27 "Hg10 mi
3:15 pm49 °FSunny.5 mph28%30.26 "Hg10 mi
2:55 pm49 °FSunny.5 mph28%30.26 "Hg10 mi
2:35 pm48 °FSunny.7 mph28%30.27 "Hg10 mi
2:15 pm48 °FSunny.3 mph28%30.27 "Hg10 mi
1:55 pm48 °FSunny.6 mph29%30.27 "Hg10 mi
1:35 pm49 °FSunny.No wind29%30.27 "Hg10 mi
1:15 pm47 °FScattered clouds.No wind31%30.28 "Hg10 mi
12:35 pm46 °FPartly sunny.No wind33%30.31 "Hg10 mi
12:15 pm45 °FSunny.No wind36%30.32 "Hg10 mi
11:55 am44 °FSunny.No wind37%30.33 "Hg10 mi
10:35 am42 °FSunny.No wind39%30.37 "Hg10 mi
10:15 am41 °FSunny.3 mph40%30.37 "Hg10 mi
9:55 am41 °FScattered clouds.No wind37%30.37 "Hg10 mi
9:15 am37 °FOvercast.5 mph40%30.36 "Hg10 mi
8:55 am36 °FPartly sunny.8 mph43%30.36 "Hg10 mi
8:35 am36 °FPartly sunny.9 mph44%30.35 "Hg10 mi
8:15 am34 °FScattered clouds.9 mph49%30.35 "Hg10 mi
7:15 am25 °FSunny.3 mph70%30.33 "Hg10 mi
6:55 am26 °FClear.5 mph69%30.32 "Hg10 mi
6:35 am26 °FClear.No wind67%30.31 "Hg10 mi
6:15 am27 °FClear.3 mph65%30.30 "Hg10 mi
5:55 am30 °FPassing clouds.3 mph55%30.29 "Hg10 mi
5:15 am32 °FPassing clouds.13 mph52%30.28 "Hg10 mi
4:55 am32 °FClear.12 mph53%30.26 "Hg10 mi
4:35 am32 °FClear.10 mph52%30.26 "Hg10 mi
4:15 am32 °FPassing clouds.10 mph53%30.26 "Hg10 mi
3:55 am32 °FClear.10 mph54%30.26 "Hg10 mi
3:35 am31 °FClear.9 mph56%30.26 "Hg10 mi
3:15 am31 °FClear.10 mph59%30.25 "Hg10 mi
2:55 am31 °FClear.10 mph57%30.25 "Hg10 mi
2:35 am31 °FClear.9 mph57%30.25 "Hg10 mi
2:15 am32 °FClear.8 mph53%30.25 "Hg10 mi
1:55 am32 °FClear.7 mph53%30.25 "Hg10 mi
1:35 am31 °FClear.7 mph57%30.25 "Hg10 mi
1:15 am32 °FClear.7 mph54%30.25 "Hg10 mi
12:35 am36 °FClear.9 mph47%30.25 "Hg10 mi
12:15 am36 °FClear.9 mph46%30.24 "Hg10 mi
11:55 pm
Wed, Jan 25
36 °FClear.9 mph47%30.24 "Hg10 mi
11:15 pm36 °FClear.10 mph47%30.24 "Hg10 mi
10:55 pm37 °FClear.8 mph47%30.24 "Hg10 mi
10:35 pm37 °FClear.7 mph46%30.25 "Hg10 mi
9:55 pm38 °FClear.9 mph44%30.23 "Hg10 mi
9:35 pm37 °FClear.9 mph45%30.23 "Hg10 mi
9:15 pm36 °FClear.8 mph47%30.23 "Hg10 mi
8:55 pm38 °FClear.7 mph43%30.23 "Hg10 mi
8:35 pm40 °FClear.7 mph39%30.23 "Hg10 mi
8:15 pm40 °FClear.8 mph38%30.23 "Hg10 mi
7:55 pm40 °FClear.9 mph39%30.23 "Hg10 mi
7:35 pm40 °FClear.9 mph38%30.23 "Hg10 mi
7:15 pm39 °FClear.8 mph36%30.22 "Hg10 mi
Weather by CustomWeather, © 2023

See weather overview